Time;durP1;ratioP1;P1;durP2;ratioP2;P2;SDS_P1;SDS_P2;PMS_P1;PMS_P2;Temp;Humidity;BMP_temperature;BMP_pressure;BME280_temperature;BME280_humidity;BME280_pressure;Samples;Min_cycle;Max_cycle;Signal;HPM_P1;HPM_P2
2022/10/16 00:01:32;;;;;;;6.53;1.20;;;;;;;14.34;91.67;100035.53;4980216;28;20206;-83
2022/10/16 00:04:00;;;;;;;4.53;0.70;;;;;;;14.30;91.54;100046.16;4979949;28;20238;-84
2022/10/16 00:06:27;;;;;;;8.37;1.27;;;;;;;14.32;91.50;100042.63;4980372;28;20213;-83
2022/10/16 00:08:54;;;;;;;5.33;1.30;;;;;;;14.28;91.70;100040.13;4980183;28;20213;-84
2022/10/16 00:11:24;;;;;;;8.03;1.43;;;;;;;14.23;92.34;100036.84;4980371;28;20217;-83
2022/10/16 00:13:53;;;;;;;3.80;1.03;;;;;;;14.20;92.38;100036.09;4982642;28;20232;-82
2022/10/16 00:16:20;;;;;;;5.30;1.27;;;;;;;14.15;92.10;100031.03;4987212;28;20230;-82
2022/10/16 00:18:46;;;;;;;3.17;1.63;;;;;;;14.13;92.46;100024.13;4986581;28;20209;-83
2022/10/16 00:21:15;;;;;;;3.63;1.20;;;;;;;14.14;92.19;100038.97;4985802;28;20212;-84
2022/10/16 00:23:42;;;;;;;3.37;0.97;;;;;;;14.10;91.78;100033.84;4986192;28;20240;-82
2022/10/16 00:26:10;;;;;;;1.47;0.83;;;;;;;14.11;91.99;100045.19;4987343;28;20217;-84
2022/10/16 00:28:38;;;;;;;3.27;0.93;;;;;;;14.10;91.94;100038.25;4986503;28;20206;-84
2022/10/16 00:31:06;;;;;;;1.10;1.10;;;;;;;14.08;92.02;100053.19;4988569;28;20213;-84
2022/10/16 00:33:32;;;;;;;1.23;1.17;;;;;;;14.07;91.73;100051.47;4983706;28;20228;-83
2022/10/16 00:35:59;;;;;;;1.13;1.03;;;;;;;14.05;91.75;100055.94;4978470;28;20209;-83
2022/10/16 00:38:26;;;;;;;1.80;0.90;;;;;;;14.03;91.82;100060.38;4977825;28;20217;-81
2022/10/16 00:40:52;;;;;;;1.20;1.10;;;;;;;14.07;91.75;100064.59;4978065;28;20214;-82
2022/10/16 00:43:36;;;;;;;2.40;1.10;;;;;;;14.08;91.82;100074.19;4978045;28;20209;-83
2022/10/16 00:46:08;;;;;;;1.47;0.80;;;;;;;14.09;91.68;100068.88;4978536;28;20217;-82
2022/10/16 00:48:35;;;;;;;2.03;1.10;;;;;;;14.09;91.79;100073.25;4978200;28;20637;-81
2022/10/16 00:51:02;;;;;;;5.03;1.60;;;;;;;14.10;91.61;100080.22;4977789;28;20211;-82
2022/10/16 00:53:28;;;;;;;4.53;1.40;;;;;;;14.11;91.62;100076.69;4977921;28;20234;-82
2022/10/16 00:55:55;;;;;;;6.30;1.00;;;;;;;14.11;91.80;100079.31;4978332;28;20297;-82
2022/10/16 00:58:22;;;;;;;2.67;1.30;;;;;;;14.05;92.30;100069.94;4977925;28;20210;-83
2022/10/16 01:00:48;;;;;;;8.00;1.40;;;;;;;14.06;92.15;100065.53;4977874;28;20744;-84
2022/10/16 01:03:28;;;;;;;3.60;1.23;;;;;;;14.07;92.28;100065.47;4978386;28;20207;-82
2022/10/16 01:06:07;;;;;;;2.07;1.00;;;;;;;13.99;92.56;100056.16;4977369;28;20244;-84
2022/10/16 01:08:44;;;;;;;6.17;1.60;;;;;;;14.00;92.86;100047.41;4977899;28;20245;-82
2022/10/16 01:11:18;;;;;;;2.83;1.40;;;;;;;13.95;93.19;100044.94;4976978;28;20215;-82
2022/10/16 01:13:49;;;;;;;3.93;1.40;;;;;;;13.99;93.71;100019.44;4976899;28;20269;-82
2022/10/16 01:16:22;;;;;;;3.90;1.60;;;;;;;14.02;93.49;100020.16;4977283;28;20221;-80
2022/10/16 01:18:54;;;;;;;3.30;1.43;;;;;;;14.00;93.67;100014.13;4977402;28;20205;-83
2022/10/16 01:21:25;;;;;;;7.17;1.27;;;;;;;14.00;94.00;100008.03;4977161;28;20214;-82
2022/10/16 01:24:02;;;;;;;1.77;1.43;;;;;;;13.96;94.22;99998.59;4977544;28;20234;-81
2022/10/16 01:26:40;;;;;;;4.97;1.50;;;;;;;13.95;94.69;99992.47;4977112;28;20217;-82
2022/10/16 01:29:14;;;;;;;1.33;1.20;;;;;;;13.93;94.65;99999.53;4977210;28;20267;-82
2022/10/16 01:31:44;;;;;;;2.53;1.37;;;;;;;13.95;94.70;100005.56;4976931;28;20305;-80
2022/10/16 01:34:17;;;;;;;1.83;1.23;;;;;;;13.93;94.55;99996.91;4977284;28;20237;-82
2022/10/16 01:36:52;;;;;;;2.77;1.43;;;;;;;13.88;94.61;100001.50;4977146;28;20635;-84
2022/10/16 01:39:22;;;;;;;2.63;1.27;;;;;;;13.87;94.43;99997.16;4976986;28;20599;-83
2022/10/16 01:41:55;;;;;;;7.23;1.90;;;;;;;13.86;94.65;100012.06;4976749;28;20750;-84
2022/10/16 01:44:27;;;;;;;3.37;1.57;;;;;;;13.83;94.62;100017.41;4976990;28;20236;-82
2022/10/16 01:46:55;;;;;;;2.07;1.30;;;;;;;13.77;95.63;100004.53;4976270;28;20221;-83
2022/10/16 01:49:25;;;;;;;2.10;1.43;;;;;;;13.80;95.57;100012.31;4976023;28;20209;-83
2022/10/16 01:51:56;;;;;;;3.17;1.70;;;;;;;13.86;95.51;100013.84;4976528;28;20208;-81
2022/10/16 01:54:26;;;;;;;3.63;1.40;;;;;;;13.88;94.99;100017.25;4977237;28;20231;-84
2022/10/16 01:56:54;;;;;;;2.07;1.50;;;;;;;13.88;95.34;100025.13;4976580;28;20214;-83
2022/10/16 01:59:25;;;;;;;2.63;1.40;;;;;;;13.85;95.55;100019.97;4976631;28;20277;-81
2022/10/16 02:01:56;;;;;;;4.17;1.43;;;;;;;13.88;95.42;100020.72;4976362;28;20218;-81
2022/10/16 02:04:28;;;;;;;4.73;1.47;;;;;;;13.89;95.43;100030.31;4976332;28;20242;-83
2022/10/16 02:06:55;;;;;;;3.97;1.60;;;;;;;13.93;94.94;100033.66;4977039;28;20217;-84
2022/10/16 02:09:22;;;;;;;1.40;1.30;;;;;;;13.93;95.01;100045.91;4976478;28;20205;-81
2022/10/16 02:11:49;;;;;;;3.43;1.47;;;;;;;13.90;94.78;100060.03;4976528;28;20236;-82
2022/10/16 02:14:16;;;;;;;1.97;1.40;;;;;;;13.87;94.59;100061.00;4976878;28;20260;-81
2022/10/16 02:16:46;;;;;;;2.37;1.53;;;;;;;13.78;95.26;100052.63;4976610;28;20226;-82
2022/10/16 02:19:14;;;;;;;3.17;1.40;;;;;;;13.80;95.34;100042.94;4976325;28;20220;-83
2022/10/16 02:21:45;;;;;;;1.87;1.47;;;;;;;13.78;95.15;100058.72;4976618;28;20708;-83
2022/10/16 02:24:18;;;;;;;3.07;1.50;;;;;;;13.79;95.14;100063.03;4977069;28;20244;-81
2022/10/16 02:26:49;;;;;;;4.43;1.43;;;;;;;13.73;95.05;100070.31;4976625;28;20219;-81
2022/10/16 02:29:21;;;;;;;3.63;1.60;;;;;;;13.76;95.16;100073.66;4976443;28;20213;-81
2022/10/16 02:31:52;;;;;;;2.43;1.43;;;;;;;13.74;95.16;100065.00;4976077;28;20217;-81
2022/10/16 02:34:21;;;;;;;2.40;1.73;;;;;;;13.73;95.37;100065.06;4976354;28;20444;-84
2022/10/16 02:36:49;;;;;;;2.43;1.60;;;;;;;13.74;95.09;100056.28;4976089;28;20279;-81
2022/10/16 02:39:16;;;;;;;2.97;1.50;;;;;;;13.73;95.18;100065.91;4976412;28;20210;-83
2022/10/16 02:41:43;;;;;;;3.57;1.30;;;;;;;13.66;94.69;100073.16;4976211;28;20233;-83
2022/10/16 02:44:10;;;;;;;2.37;1.47;;;;;;;13.63;94.99;100062.78;4976389;28;20234;-82
2022/10/16 02:46:36;;;;;;;1.90;1.20;;;;;;;13.60;95.21;100062.06;4976109;28;20208;-83
2022/10/16 02:49:04;;;;;;;3.70;2.00;;;;;;;13.60;95.14;100054.19;4976390;28;20207;-83
2022/10/16 02:51:30;;;;;;;5.73;1.80;;;;;;;13.60;95.58;100059.44;4976123;28;20215;-82
2022/10/16 02:53:57;;;;;;;4.40;1.70;;;;;;;13.56;95.31;100049.94;4976124;28;20234;-84
2022/10/16 02:56:23;;;;;;;7.60;1.73;;;;;;;13.54;95.58;100047.41;4977058;28;20596;-83
2022/10/16 02:58:50;;;;;;;17.40;2.13;;;;;;;13.53;95.78;100044.81;4976679;28;20221;-84
2022/10/16 03:01:17;;;;;;;2.97;1.80;;;;;;;13.57;95.46;100049.88;4978126;28;20744;-83
2022/10/16 03:03:43;;;;;;;4.93;1.00;;;;;;;13.57;95.73;100043.78;4979717;28;20234;-81
2022/10/16 03:06:11;;;;;;;4.63;1.70;;;;;;;13.59;95.63;100048.06;4980051;28;20218;-81
2022/10/16 03:08:38;;;;;;;4.50;1.33;;;;;;;13.59;95.26;100060.31;4979981;28;20214;-81
2022/10/16 03:11:04;;;;;;;4.57;1.80;;;;;;;13.54;95.27;100052.66;4980272;28;20214;-80
2022/10/16 03:13:30;;;;;;;6.63;1.20;;;;;;;13.51;95.37;100045.72;4980352;28;20231;-83
2022/10/16 03:15:57;;;;;;;5.53;1.40;;;;;;;13.54;95.46;100039.53;4980698;28;20214;-83
2022/10/16 03:18:23;;;;;;;5.90;1.50;;;;;;;13.53;95.11;100047.44;4980662;28;20241;-83
2022/10/16 03:20:50;;;;;;;4.63;1.27;;;;;;;13.54;94.76;100054.38;4981822;28;20213;-83
2022/10/16 03:23:18;;;;;;;3.87;1.40;;;;;;;13.46;95.84;100050.31;4978139;28;20214;-82
2022/10/16 03:25:44;;;;;;;8.07;1.53;;;;;;;13.45;95.42;100056.44;4977942;28;20242;-82
2022/10/16 03:28:10;;;;;;;2.83;1.40;;;;;;;13.43;95.13;100060.88;4978573;28;20217;-83
2022/10/16 03:30:39;;;;;;;8.37;1.70;;;;;;;13.41;95.12;100065.34;4978218;28;20241;-83
2022/10/16 03:33:05;;;;;;;5.93;1.63;;;;;;;13.42;94.89;100074.94;4978304;28;20280;-81
2022/10/16 03:35:33;;;;;;;4.57;1.33;;;;;;;13.38;95.24;100068.09;4978788;28;20716;-81
2022/10/16 03:37:59;;;;;;;3.60;1.53;;;;;;;13.38;95.35;100062.84;4978565;28;20269;-82
2022/10/16 03:40:27;;;;;;;5.17;1.43;;;;;;;13.35;95.21;100069.97;4978038;28;20216;-82
2022/10/16 03:42:57;;;;;;;6.27;1.40;;;;;;;13.35;95.27;100072.59;4978494;28;20217;-81
2022/10/16 03:45:23;;;;;;;5.77;2.10;;;;;;;13.36;95.49;100071.66;4978370;28;20238;-80
2022/10/16 03:47:49;;;;;;;5.93;1.57;;;;;;;13.36;95.68;100066.41;4978208;28;20591;-81
2022/10/16 03:50:16;;;;;;;5.80;1.73;;;;;;;13.35;95.36;100064.72;4978649;28;20213;-82
2022/10/16 03:52:42;;;;;;;6.27;1.60;;;;;;;13.37;95.48;100066.38;4978793;28;20213;-82
2022/10/16 03:55:09;;;;;;;8.23;2.03;;;;;;;13.36;95.78;100054.19;4978341;28;20229;-81
2022/10/16 03:57:37;;;;;;;5.37;1.73;;;;;;;13.40;95.58;100060.13;4978763;28;20215;-80
2022/10/16 04:00:04;;;;;;;11.87;1.90;;;;;;;13.40;95.42;100061.03;4978425;28;20213;-81
2022/10/16 04:02:31;;;;;;;3.40;1.87;;;;;;;13.39;95.36;100068.94;4978493;28;20210;-82
2022/10/16 04:04:57;;;;;;;5.20;1.67;;;;;;;13.38;95.00;100069.81;4978291;28;20225;-81
2022/10/16 04:07:24;;;;;;;3.17;1.37;;;;;;;13.36;95.07;100069.03;4978479;28;20232;-81
2022/10/16 04:09:51;;;;;;;5.70;1.73;;;;;;;13.36;94.97;100066.41;4978399;28;20726;-81
2022/10/16 04:12:18;;;;;;;2.57;1.67;;;;;;;13.35;94.91;100060.31;4977877;28;20264;-80
2022/10/16 04:14:46;;;;;;;14.00;1.93;;;;;;;13.33;94.99;100071.78;4978179;28;20233;-82
2022/10/16 04:17:12;;;;;;;13.43;1.90;;;;;;;13.29;95.25;100069.25;4978188;28;20213;-81
2022/10/16 04:19:38;;;;;;;7.13;1.67;;;;;;;13.30;95.70;100073.59;4978181;28;20209;-80
2022/10/16 04:22:05;;;;;;;4.37;1.50;;;;;;;13.29;95.92;100061.41;4978371;28;20219;-81
2022/10/16 04:24:31;;;;;;;5.90;1.80;;;;;;;13.31;96.08;100059.56;4978391;28;20316;-81
2022/10/16 04:26:58;;;;;;;7.67;2.47;;;;;;;13.27;95.91;100075.44;4978525;28;20209;-81
2022/10/16 04:29:24;;;;;;;9.03;1.67;;;;;;;13.26;96.18;100076.34;4978687;28;20237;-82
2022/10/16 04:31:52;;;;;;;2.43;1.60;;;;;;;13.26;96.15;100071.09;4978242;28;20210;-82
2022/10/16 04:34:19;;;;;;;4.53;1.90;;;;;;;13.24;95.71;100072.91;4979696;28;20241;-80
2022/10/16 04:36:48;;;;;;;5.43;1.50;;;;;;;13.26;95.67;100076.34;4979689;28;20223;-82
2022/10/16 04:39:14;;;;;;;3.27;1.60;;;;;;;13.23;95.91;100076.47;4979206;28;20206;-80
2022/10/16 04:41:41;;;;;;;10.37;1.83;;;;;;;13.24;96.11;100080.78;4979256;28;20209;-80
2022/10/16 04:44:08;;;;;;;3.43;1.67;;;;;;;13.25;96.28;100064.16;4979998;28;20230;-84
2022/10/16 04:46:34;;;;;;;14.70;1.90;;;;;;;13.24;95.98;100052.81;4979755;28;20210;-80
2022/10/16 04:49:02;;;;;;;5.47;1.67;;;;;;;13.24;96.18;100057.19;4979847;28;20213;-81
2022/10/16 04:51:28;;;;;;;4.07;1.83;;;;;;;13.24;96.38;100065.06;4979332;28;20221;-83
2022/10/16 04:53:55;;;;;;;2.57;1.10;;;;;;;13.24;95.84;100060.69;4979938;28;20238;-82
2022/10/16 04:56:22;;;;;;;2.90;1.40;;;;;;;13.20;96.51;100069.56;4979950;28;20221;-84
2022/10/16 04:58:49;;;;;;;3.20;1.60;;;;;;;13.20;96.69;100064.34;4979958;28;20213;-82
2022/10/16 05:01:15;;;;;;;3.97;1.60;;;;;;;13.28;96.33;100072.78;4980260;28;20206;-83
2022/10/16 05:03:42;;;;;;;4.83;1.60;;;;;;;13.30;96.06;100070.13;4979164;28;20215;-83
2022/10/16 05:06:09;;;;;;;2.93;1.43;;;;;;;13.24;97.06;100065.06;4980526;28;20689;-83
2022/10/16 05:08:36;;;;;;;3.57;1.93;;;;;;;13.23;97.18;100066.84;4977151;28;20692;-81
2022/10/16 05:11:02;;;;;;;2.13;1.60;;;;;;;13.24;97.21;100070.28;4976942;28;20223;-83
2022/10/16 05:13:29;;;;;;;2.73;1.57;;;;;;;13.24;97.06;100059.81;4976903;28;20237;-81
2022/10/16 05:15:55;;;;;;;2.00;1.27;;;;;;;13.27;96.84;100057.94;4977630;28;20221;-80
2022/10/16 05:18:22;;;;;;;4.30;1.60;;;;;;;13.26;97.05;100065.84;4976844;28;20235;-82
2022/10/16 05:20:48;;;;;;;4.37;1.73;;;;;;;13.22;97.54;100059.88;4976775;28;20214;-81
2022/10/16 05:23:16;;;;;;;4.30;1.60;;;;;;;13.24;97.51;100059.81;4976232;28;20570;-80
2022/10/16 05:25:42;;;;;;;9.50;1.83;;;;;;;13.19;97.07;100070.47;4976507;28;20767;-80
2022/10/16 05:28:09;;;;;;;2.10;1.47;;;;;;;13.18;97.13;100070.53;4976154;28;20214;-81
2022/10/16 05:30:38;;;;;;;4.20;1.53;;;;;;;13.10;97.71;100066.44;4976788;28;20236;-79
2022/10/16 05:33:04;;;;;;;2.33;1.17;;;;;;;13.12;98.07;100076.81;4977841;28;20300;-81
2022/10/16 05:35:31;;;;;;;2.27;1.23;;;;;;;13.15;97.52;100083.75;4978457;28;20242;-80
2022/10/16 05:37:57;;;;;;;3.00;1.47;;;;;;;13.17;97.39;100097.66;4977130;28;20268;-81
2022/10/16 05:40:25;;;;;;;3.93;1.40;;;;;;;13.10;97.14;100102.22;4974649;28;20217;-81
2022/10/16 05:42:55;;;;;;;5.43;1.37;;;;;;;13.11;96.81;100107.44;4975120;28;20232;-81
2022/10/16 05:45:22;;;;;;;3.23;1.40;;;;;;;13.07;97.17;100100.59;4974609;28;20228;-81
2022/10/16 05:47:48;;;;;;;1.67;1.57;;;;;;;13.02;97.65;100104.25;4974854;28;20213;-82
2022/10/16 05:50:15;;;;;;;2.83;1.40;;;;;;;13.03;97.86;100085.03;4974389;28;20213;-80
2022/10/16 05:52:41;;;;;;;2.27;1.37;;;;;;;13.06;97.83;100090.16;4974660;28;20214;-80
2022/10/16 05:55:08;;;;;;;7.60;1.47;;;;;;;13.08;97.98;100081.34;4975112;28;20238;-82
2022/10/16 05:57:36;;;;;;;1.50;1.30;;;;;;;13.10;97.59;100082.16;4975764;28;20213;-80
2022/10/16 06:00:04;;;;;;;5.57;1.70;;;;;;;13.17;97.52;100101.13;4975256;28;20239;-81
2022/10/16 06:02:30;;;;;;;2.70;1.37;;;;;;;13.16;97.66;100106.41;4975494;28;20220;-81
2022/10/16 06:04:57;;;;;;;5.50;1.70;;;;;;;13.13;97.44;100110.00;4975326;28;20224;-80
2022/10/16 06:07:24;;;;;;;2.10;1.80;;;;;;;13.10;98.47;100120.56;4975433;28;20241;-80
2022/10/16 06:09:51;;;;;;;1.50;1.10;;;;;;;13.06;98.93;100091.03;4975371;28;20239;-79
2022/10/16 06:12:18;;;;;;;2.40;1.40;;;;;;;13.02;99.38;100081.56;4975258;28;20620;-80
2022/10/16 06:14:47;;;;;;;3.23;1.70;;;;;;;13.08;99.64;100067.38;4978522;28;20238;-79
2022/10/16 06:17:13;;;;;;;2.77;1.80;;;;;;;13.11;100.00;100049.78;4974336;28;20232;-80
2022/10/16 06:19:40;;;;;;;2.30;1.53;;;;;;;13.22;100.00;100057.28;4974043;28;20210;-80
2022/10/16 06:22:07;;;;;;;4.30;1.40;;;;;;;13.26;100.00;100061.50;4974070;28;20592;-80
2022/10/16 06:24:34;;;;;;;5.43;2.03;;;;;;;13.29;100.00;100090.22;4974238;28;20254;-80
2022/10/16 06:27:01;;;;;;;1.23;1.17;;;;;;;13.34;99.58;100089.22;4973974;28;20217;-80
2022/10/16 06:29:27;;;;;;;1.23;1.10;;;;;;;13.38;99.76;100099.56;4973637;28;20699;-80
2022/10/16 06:31:55;;;;;;;2.50;1.60;;;;;;;13.40;99.43;100112.56;4973650;28;20714;-79
2022/10/16 06:34:21;;;;;;;1.83;1.40;;;;;;;13.40;99.66;100109.97;4974757;28;20245;-80
2022/10/16 06:36:48;;;;;;;1.50;1.50;;;;;;;13.46;99.62;100109.75;4981027;28;20221;-80
2022/10/16 06:39:14;;;;;;;1.60;1.50;;;;;;;13.45;100.00;100095.78;4981232;28;20210;-83
2022/10/16 06:41:41;;;;;;;3.00;1.40;;;;;;;13.51;99.62;100106.03;4981667;28;20213;-81
2022/10/16 06:44:08;;;;;;;1.60;1.50;;;;;;;13.50;100.00;100109.59;4981865;28;20226;-83
2022/10/16 06:46:35;;;;;;;1.83;1.73;;;;;;;13.57;100.00;100109.34;4981332;28;20206;-82
2022/10/16 06:49:03;;;;;;;2.23;1.73;;;;;;;13.56;100.00;100108.50;4980562;28;20237;-83
2022/10/16 06:51:31;;;;;;;1.80;1.47;;;;;;;13.63;100.00;100109.13;4980333;28;20595;-82
2022/10/16 06:53:57;;;;;;;2.20;1.40;;;;;;;13.69;100.00;100115.00;4980302;28;20283;-80
2022/10/16 06:56:25;;;;;;;2.60;1.73;;;;;;;13.78;100.00;100126.09;4978815;28;20217;-82
2022/10/16 06:58:53;;;;;;;1.40;1.30;;;;;;;13.83;99.97;100138.09;4980375;28;20222;-80
2022/10/16 07:01:22;;;;;;;1.90;1.80;;;;;;;13.88;100.00;100138.78;4979534;28;20209;-80
2022/10/16 07:03:49;;;;;;;2.70;1.87;;;;;;;13.97;100.00;100141.97;4980035;28;20280;-82
2022/10/16 07:06:19;;;;;;;1.67;1.50;;;;;;;14.07;99.68;100156.47;4979531;28;20210;-81
2022/10/16 07:08:47;;;;;;;2.40;1.50;;;;;;;14.16;99.53;100147.41;4980214;28;20214;-82
2022/10/16 07:11:16;;;;;;;2.43;1.53;;;;;;;14.18;98.79;100162.16;4979716;28;20207;-83
2022/10/16 07:13:45;;;;;;;1.50;1.40;;;;;;;14.25;98.53;100175.91;4980449;28;20212;-80
2022/10/16 07:16:14;;;;;;;2.40;1.50;;;;;;;14.32;98.33;100197.53;4980268;28;20225;-83
2022/10/16 07:18:42;;;;;;;2.50;1.40;;;;;;;14.38;97.37;100221.78;4980571;28;20205;-82
2022/10/16 07:21:11;;;;;;;2.17;1.40;;;;;;;14.42;96.94;100227.78;4988024;28;20276;-80
2022/10/16 07:23:39;;;;;;;2.10;1.27;;;;;;;14.48;96.52;100245.94;4989428;28;20201;-82
2022/10/16 07:26:06;;;;;;;1.97;1.10;;;;;;;14.51;96.00;100245.81;4989114;28;20212;-81
2022/10/16 07:28:33;;;;;;;1.43;1.33;;;;;;;14.57;95.57;100268.38;4998444;28;20212;-81
2022/10/16 07:31:02;;;;;;;1.20;1.20;;;;;;;14.57;95.09;100285.03;4989189;28;20211;-80
2022/10/16 07:33:29;;;;;;;2.10;1.10;;;;;;;14.61;94.46;100297.13;4990403;28;20213;-81
2022/10/16 07:35:55;;;;;;;0.97;0.93;;;;;;;14.61;93.87;100320.75;4994392;28;20595;-80
2022/10/16 07:38:23;;;;;;;1.10;0.90;;;;;;;14.64;93.91;100348.69;4986126;28;20204;-80
2022/10/16 07:40:57;;;;;;;0.80;0.80;;;;;;;14.69;93.60;100347.59;4987021;28;20215;-80
2022/10/16 07:43:23;;;;;;;1.30;0.90;;;;;;;14.75;93.46;100346.50;4986826;28;20194;-80
2022/10/16 07:45:51;;;;;;;1.00;0.83;;;;;;;14.75;93.35;100343.03;4995384;28;20225;-80
2022/10/16 07:48:18;;;;;;;1.30;0.93;;;;;;;14.82;92.83;100362.91;4994412;28;20214;-81
2022/10/16 07:50:45;;;;;;;0.77;0.70;;;;;;;14.91;92.07;100377.47;4995677;28;20668;-81
2022/10/16 07:53:12;;;;;;;1.60;0.90;;;;;;;14.99;92.15;100394.66;4995694;28;20214;-81
2022/10/16 07:55:39;;;;;;;1.90;1.10;;;;;;;15.02;91.22;100404.19;4995436;28;20225;-79
2022/10/16 07:58:07;;;;;;;1.10;0.90;;;;;;;15.01;90.30;100421.75;4995750;28;20201;-80
2022/10/16 08:00:34;;;;;;;1.13;0.97;;;;;;;15.06;90.02;100434.69;4996316;28;20211;-80
2022/10/16 08:03:01;;;;;;;0.87;0.87;;;;;;;15.08;90.23;100438.13;4996099;28;20236;-80
2022/10/16 08:05:28;;;;;;;0.97;0.97;;;;;;;15.09;89.70;100460.91;4995864;28;20259;-81
2022/10/16 08:07:54;;;;;;;1.00;1.00;;;;;;;15.12;89.67;100473.06;4995644;28;20213;-80
2022/10/16 08:10:23;;;;;;;1.37;0.70;;;;;;;15.19;89.77;100453.53;4995546;28;20224;-80
2022/10/16 08:12:49;;;;;;;2.07;0.93;;;;;;;15.16;90.05;100462.34;4995788;28;20688;-80
2022/10/16 08:15:17;;;;;;;2.00;0.90;;;;;;;15.21;90.50;100455.16;4995813;28;20229;-78
2022/10/16 08:17:44;;;;;;;0.87;0.87;;;;;;;15.20;90.88;100447.34;4996270;28;20217;-80
2022/10/16 08:20:11;;;;;;;1.10;1.10;;;;;;;15.18;90.38;100459.69;4996910;28;20215;-79
2022/10/16 08:22:38;;;;;;;1.80;1.00;;;;;;;15.17;90.21;100457.97;4996412;28;20227;-79
2022/10/16 08:25:05;;;;;;;1.27;0.93;;;;;;;15.21;89.59;100481.47;4997087;28;20233;-80
2022/10/16 08:27:32;;;;;;;1.00;1.00;;;;;;;15.34;90.36;100465.22;4996361;28;20239;-79
2022/10/16 08:29:58;;;;;;;1.13;1.07;;;;;;;15.34;90.29;100473.97;4996011;28;20213;-80
2022/10/16 08:32:26;;;;;;;1.87;0.97;;;;;;;15.41;90.26;100459.66;4995483;28;20209;-79
2022/10/16 08:34:53;;;;;;;4.87;1.40;;;;;;;15.41;90.01;100464.91;4996320;28;20237;-79
2022/10/16 08:37:19;;;;;;;1.23;0.93;;;;;;;15.37;89.40;100473.84;4996715;28;20216;-78
2022/10/16 08:39:45;;;;;;;1.60;1.00;;;;;;;15.51;90.04;100462.78;4996374;28;20212;-78
2022/10/16 08:42:21;;;;;;;1.73;1.00;;;;;;;15.59;89.60;100465.13;4997122;28;20217;-79
2022/10/16 08:45:16;;;;;;;2.00;0.97;;;;;;;15.69;89.24;100477.84;4995564;28;20225;-79
2022/10/16 08:47:54;;;;;;;1.60;1.00;;;;;;;15.74;88.12;100505.78;4997399;28;20221;-80
2022/10/16 08:50:26;;;;;;;0.97;0.80;;;;;;;15.81;87.75;100523.91;4995662;28;20220;-82
2022/10/16 08:52:53;;;;;;;1.20;1.10;;;;;;;15.83;87.66;100534.41;4997988;28;20206;-81
2022/10/16 08:55:32;;;;;;;1.00;0.90;;;;;;;15.85;87.50;100537.81;4996182;28;20244;-78
2022/10/16 08:57:58;;;;;;;0.83;0.83;;;;;;;15.88;87.55;100542.97;4997084;28;20759;-80
2022/10/16 09:00:27;;;;;;;1.00;1.00;;;;;;;15.80;86.21;100569.59;4997287;28;20215;-80
2022/10/16 09:03:05;;;;;;;0.83;0.70;;;;;;;15.77;84.29;100606.56;4999413;28;20211;-79
2022/10/16 09:05:58;;;;;;;0.73;0.73;;;;;;;15.89;85.49;100602.59;4998264;28;20611;-78
2022/10/16 09:08:33;;;;;;;1.47;0.87;;;;;;;15.89;84.34;100636.81;4998487;28;20268;-81
2022/10/16 09:11:07;;;;;;;1.40;0.90;;;;;;;15.84;83.99;100662.47;4991305;28;20712;-79
2022/10/16 09:13:40;;;;;;;0.70;0.70;;;;;;;15.84;83.72;100665.09;4998908;28;20413;-81
2022/10/16 09:16:18;;;;;;;2.37;0.70;;;;;;;15.87;83.72;100697.41;4999200;28;20232;-80
2022/10/16 09:18:53;;;;;;;1.13;0.90;;;;;;;15.90;83.52;100678.03;4998264;28;20560;-80
2022/10/16 09:21:22;;;;;;;0.70;0.70;;;;;;;15.92;83.35;100693.78;4998136;28;20623;-80
2022/10/16 09:23:49;;;;;;;1.07;0.80;;;;;;;15.85;83.03;100708.94;4998044;28;20230;-80
2022/10/16 09:26:18;;;;;;;0.87;0.67;;;;;;;15.80;81.54;100726.69;4996913;28;20203;-79
2022/10/16 09:28:45;;;;;;;0.70;0.70;;;;;;;15.85;82.74;100717.69;4997607;28;20221;-79
2022/10/16 09:31:18;;;;;;;1.53;0.90;;;;;;;15.87;82.79;100707.94;4997460;28;20681;-80
2022/10/16 09:33:51;;;;;;;1.23;0.70;;;;;;;15.86;81.34;100729.94;4997571;28;20251;-80
2022/10/16 09:36:19;;;;;;;2.30;0.70;;;;;;;15.91;81.47;100737.66;4997882;28;20727;-80
2022/10/16 09:38:45;;;;;;;0.80;0.80;;;;;;;15.96;81.34;100734.88;4997887;28;20234;-79
2022/10/16 09:41:17;;;;;;;0.83;0.60;;;;;;;16.01;81.30;100741.66;4998037;28;20218;-81
2022/10/16 09:43:49;;;;;;;2.60;0.80;;;;;;;16.06;81.54;100754.69;4997587;28;20205;-81
2022/10/16 09:46:25;;;;;;;1.33;0.70;;;;;;;16.11;80.90;100763.25;4997530;28;20347;-81
2022/10/16 09:48:57;;;;;;;0.63;0.57;;;;;;;16.12;80.56;100775.53;4997641;28;20218;-82
2022/10/16 09:51:25;;;;;;;1.80;0.70;;;;;;;16.20;81.56;100764.72;4998125;28;20229;-82
2022/10/16 09:53:56;;;;;;;0.77;0.60;;;;;;;16.22;81.86;100747.94;4997591;28;20223;-81
2022/10/16 09:56:25;;;;;;;1.23;0.70;;;;;;;16.28;81.82;100737.16;4997130;28;20242;-82
2022/10/16 09:58:53;;;;;;;1.27;0.60;;;;;;;16.32;80.14;100779.22;4997538;28;20214;-84
2022/10/16 10:01:20;;;;;;;2.07;0.77;;;;;;;16.37;80.02;100793.94;4997867;28;20211;-83
2022/10/16 10:03:48;;;;;;;0.70;0.50;;;;;;;16.35;77.43;100830.00;4997661;28;20210;-81
2022/10/16 10:06:24;;;;;;;0.80;0.70;;;;;;;16.40;78.24;100869.34;4997200;28;20351;-83
2022/10/16 10:08:56;;;;;;;0.80;0.80;;;;;;;16.44;78.43;100852.50;4997506;28;20221;-82
2022/10/16 10:11:43;;;;;;;1.07;0.50;;;;;;;16.46;77.61;100883.16;4997154;28;20628;-82
2022/10/16 10:14:18;;;;;;;1.63;0.50;;;;;;;16.50;76.41;100914.69;4997557;28;20233;-82
2022/10/16 10:16:45;;;;;;;1.83;0.60;;;;;;;16.56;74.40;100961.91;4998718;28;20236;-83
2022/10/16 10:19:15;;;;;;;1.47;0.50;;;;;;;16.58;73.99;100986.44;4994259;28;20216;-80
2022/10/16 10:21:43;;;;;;;0.57;0.57;;;;;;;16.63;73.68;101003.81;4994453;28;20226;-81
2022/10/16 10:24:12;;;;;;;0.70;0.50;;;;;;;16.69;72.87;101042.28;4994717;28;20234;-81
2022/10/16 10:26:40;;;;;;;2.57;0.77;;;;;;;16.74;72.29;101068.47;4995028;28;20206;-81
2022/10/16 10:29:16;;;;;;;2.70;0.70;;;;;;;16.77;71.15;101047.25;4995579;28;20207;-81
2022/10/16 10:31:49;;;;;;;0.60;0.40;;;;;;;16.82;70.83;101083.13;4995200;28;20211;-80
2022/10/16 10:34:27;;;;;;;1.00;0.50;;;;;;;16.84;70.35;101120.00;4995864;28;20235;-81
2022/10/16 10:37:03;;;;;;;2.30;0.60;;;;;;;16.92;71.79;101106.56;4996186;28;20233;-82
2022/10/16 10:39:36;;;;;;;1.90;0.60;;;;;;;16.93;71.70;101089.84;4996666;28;20221;-81
2022/10/16 10:42:15;;;;;;;1.33;0.93;;;;;;;17.05;70.87;101077.06;4995557;28;20215;-80
2022/10/16 10:45:02;;;;;;;1.60;0.63;;;;;;;17.25;70.02;101117.69;4995936;28;20237;-82
2022/10/16 10:47:41;;;;;;;1.17;0.80;;;;;;;17.39;70.10;101114.56;4995710;28;20749;-82
2022/10/16 10:50:17;;;;;;;1.63;0.57;;;;;;;17.40;69.78;101146.19;4995720;28;20279;-82
2022/10/16 10:52:57;;;;;;;2.50;0.83;;;;;;;17.40;68.30;101163.78;4996155;28;20615;-79
2022/10/16 10:55:32;;;;;;;1.60;0.50;;;;;;;17.41;67.89;101176.94;4996007;28;20237;-81
2022/10/16 10:58:20;;;;;;;0.97;0.50;;;;;;;17.38;68.01;101199.91;4995838;28;20731;-82
2022/10/16 11:00:57;;;;;;;2.03;0.80;;;;;;;17.33;67.82;101201.88;4996271;28;20210;-80
2022/10/16 11:03:35;;;;;;;1.97;0.80;;;;;;;17.11;67.24;101228.13;4997140;28;20218;-82
2022/10/16 11:06:08;;;;;;;2.73;0.83;;;;;;;16.95;67.01;101236.56;4996052;28;20218;-82
2022/10/16 11:08:40;;;;;;;2.23;0.40;;;;;;;16.89;67.45;101226.19;4995672;28;20210;-83
2022/10/16 11:11:14;;;;;;;2.67;0.60;;;;;;;16.98;68.28;101191.59;4995190;28;20202;-82
2022/10/16 11:13:49;;;;;;;0.50;0.50;;;;;;;16.98;67.89;101177.56;4995604;28;20213;-80
2022/10/16 11:16:21;;;;;;;0.40;0.37;;;;;;;17.02;67.83;101172.09;4995614;28;20237;-82
2022/10/16 11:18:52;;;;;;;1.87;0.60;;;;;;;17.17;67.79;101177.81;4995758;28;20214;-83
2022/10/16 11:21:22;;;;;;;1.83;0.60;;;;;;;17.27;67.60;101158.09;4994450;28;20215;-80
2022/10/16 11:23:56;;;;;;;1.40;0.50;;;;;;;17.35;66.39;101197.41;4998474;28;20752;-82
2022/10/16 11:26:26;;;;;;;1.80;0.50;;;;;;;17.45;66.41;101217.28;4999523;28;20216;-83
2022/10/16 11:28:55;;;;;;;0.77;0.50;;;;;;;17.47;65.22;101216.28;4999130;28;20214;-83
2022/10/16 11:31:31;;;;;;;1.50;0.60;;;;;;;17.54;64.07;101285.59;4998824;28;20218;-83
2022/10/16 11:34:05;;;;;;;0.40;0.37;;;;;;;17.60;63.89;101300.34;4999619;28;20254;-83